sensor_id;sensor_type;location;lat;lon;timestamp;pressure;altitude;pressure_sealevel;temperature;humidity
50710;BME280;37033;49.994;21.992;2023-03-13T00:00:41;99053.55;;;-0.19;71.86
50710;BME280;37033;49.994;21.992;2023-03-13T00:03:19;99050.70;;;-0.18;71.86
50710;BME280;37033;49.994;21.992;2023-03-13T00:05:50;99048.88;;;-0.16;71.72
50710;BME280;37033;49.994;21.992;2023-03-13T00:08:24;99045.69;;;-0.12;71.75
50710;BME280;37033;49.994;21.992;2023-03-13T00:11:01;99045.88;;;-0.09;71.76
50710;BME280;37033;49.994;21.992;2023-03-13T00:13:32;99050.06;;;-0.04;71.74
50710;BME280;37033;49.994;21.992;2023-03-13T00:16:05;99045.96;;;0.03;71.54
50710;BME280;37033;49.994;21.992;2023-03-13T00:18:36;99048.00;;;0.09;71.31
50710;BME280;37033;49.994;21.992;2023-03-13T00:21:08;99044.89;;;0.16;71.05
50710;BME280;37033;49.994;21.992;2023-03-13T00:23:39;99045.02;;;0.22;70.88
50710;BME280;37033;49.994;21.992;2023-03-13T00:26:11;99033.19;;;0.28;70.77
50710;BME280;37033;49.994;21.992;2023-03-13T00:28:43;99026.29;;;0.31;70.63
50710;BME280;37033;49.994;21.992;2023-03-13T00:31:16;99028.31;;;0.35;70.39
50710;BME280;37033;49.994;21.992;2023-03-13T00:33:48;99024.46;;;0.39;70.36
50710;BME280;37033;49.994;21.992;2023-03-13T00:36:21;99019.86;;;0.44;70.24
50710;BME280;37033;49.994;21.992;2023-03-13T00:38:53;99013.58;;;0.47;70.12
50710;BME280;37033;49.994;21.992;2023-03-13T00:41:26;99008.44;;;0.50;70.21
50710;BME280;37033;49.994;21.992;2023-03-13T00:43:58;99007.29;;;0.53;70.15
50710;BME280;37033;49.994;21.992;2023-03-13T00:46:29;99008.20;;;0.54;70.07
50710;BME280;37033;49.994;21.992;2023-03-13T00:49:00;99009.05;;;0.56;70.05
50710;BME280;37033;49.994;21.992;2023-03-13T00:51:33;99003.13;;;0.56;69.85
50710;BME280;37033;49.994;21.992;2023-03-13T00:54:04;99008.29;;;0.58;69.86
50710;BME280;37033;49.994;21.992;2023-03-13T00:56:35;99006.69;;;0.59;69.76
50710;BME280;37033;49.994;21.992;2023-03-13T00:59:06;99004.66;;;0.63;69.41
50710;BME280;37033;49.994;21.992;2023-03-13T01:01:37;99000.64;;;0.71;69.06
50710;BME280;37033;49.994;21.992;2023-03-13T01:04:09;98991.13;;;0.79;68.64
50710;BME280;37033;49.994;21.992;2023-03-13T01:06:42;98988.52;;;0.89;68.26
50710;BME280;37033;49.994;21.992;2023-03-13T01:09:14;98986.25;;;0.94;68.19
50710;BME280;37033;49.994;21.992;2023-03-13T01:11:46;98981.48;;;1.00;67.69
50710;BME280;37033;49.994;21.992;2023-03-13T01:14:18;98983.97;;;1.04;67.65
50710;BME280;37033;49.994;21.992;2023-03-13T01:16:49;98988.38;;;1.09;66.99
50710;BME280;37033;49.994;21.992;2023-03-13T01:19:20;98986.45;;;1.14;66.53
50710;BME280;37033;49.994;21.992;2023-03-13T01:21:51;98985.45;;;1.21;66.25
50710;BME280;37033;49.994;21.992;2023-03-13T01:24:21;98991.45;;;1.27;66.83
50710;BME280;37033;49.994;21.992;2023-03-13T01:26:53;98992.94;;;1.33;67.48
50710;BME280;37033;49.994;21.992;2023-03-13T01:29:23;98999.66;;;1.34;68.21
50710;BME280;37033;49.994;21.992;2023-03-13T01:31:54;98998.77;;;1.35;68.66
50710;BME280;37033;49.994;21.992;2023-03-13T01:34:25;99001.65;;;1.35;69.14
50710;BME280;37033;49.994;21.992;2023-03-13T01:36:56;99005.86;;;1.36;69.63
50710;BME280;37033;49.994;21.992;2023-03-13T01:39:27;99006.92;;;1.36;69.97
50710;BME280;37033;49.994;21.992;2023-03-13T01:41:57;99007.19;;;1.36;70.10
50710;BME280;37033;49.994;21.992;2023-03-13T01:44:28;99009.73;;;1.36;70.29
50710;BME280;37033;49.994;21.992;2023-03-13T01:46:59;99009.86;;;1.37;70.24
50710;BME280;37033;49.994;21.992;2023-03-13T01:49:32;99010.41;;;1.38;70.23
50710;BME280;37033;49.994;21.992;2023-03-13T01:52:08;99008.38;;;1.39;70.34
50710;BME280;37033;49.994;21.992;2023-03-13T01:54:43;99010.30;;;1.39;71.61
50710;BME280;37033;49.994;21.992;2023-03-13T01:57:22;99013.20;;;1.33;72.84
50710;BME280;37033;49.994;21.992;2023-03-13T01:59:58;99014.64;;;1.24;73.88
50710;BME280;37033;49.994;21.992;2023-03-13T02:02:30;99013.73;;;1.15;74.86
50710;BME280;37033;49.994;21.992;2023-03-13T02:05:03;99016.55;;;1.05;75.81
50710;BME280;37033;49.994;21.992;2023-03-13T02:07:39;99015.86;;;0.95;76.20
50710;BME280;37033;49.994;21.992;2023-03-13T02:10:13;99016.86;;;0.86;76.74
50710;BME280;37033;49.994;21.992;2023-03-13T02:12:46;99014.64;;;0.76;77.49
50710;BME280;37033;49.994;21.992;2023-03-13T02:15:20;99010.65;;;0.70;77.52
50710;BME280;37033;49.994;21.992;2023-03-13T02:17:51;99009.07;;;0.65;77.98
50710;BME280;37033;49.994;21.992;2023-03-13T02:20:23;99011.88;;;0.59;78.59
50710;BME280;37033;49.994;21.992;2023-03-13T02:22:59;99009.33;;;0.55;78.46
50710;BME280;37033;49.994;21.992;2023-03-13T02:25:42;99014.11;;;0.53;78.84
50710;BME280;37033;49.994;21.992;2023-03-13T02:28:17;99011.02;;;0.49;79.41
50710;BME280;37033;49.994;21.992;2023-03-13T02:30:53;99009.45;;;0.46;79.52
50710;BME280;37033;49.994;21.992;2023-03-13T02:33:27;99012.23;;;0.45;79.20
50710;BME280;37033;49.994;21.992;2023-03-13T02:35:59;99013.21;;;0.44;79.45
50710;BME280;37033;49.994;21.992;2023-03-13T02:38:34;99011.36;;;0.43;79.45
50710;BME280;37033;49.994;21.992;2023-03-13T02:41:06;99007.27;;;0.42;79.84
50710;BME280;37033;49.994;21.992;2023-03-13T02:43:38;99006.35;;;0.42;79.85
50710;BME280;37033;49.994;21.992;2023-03-13T02:46:11;99009.38;;;0.43;79.82
50710;BME280;37033;49.994;21.992;2023-03-13T02:48:44;99010.69;;;0.43;79.96
50710;BME280;37033;49.994;21.992;2023-03-13T02:51:19;99012.83;;;0.43;79.81
50710;BME280;37033;49.994;21.992;2023-03-13T02:53:51;99009.23;;;0.43;79.59
50710;BME280;37033;49.994;21.992;2023-03-13T02:56:26;99009.79;;;0.46;79.76
50710;BME280;37033;49.994;21.992;2023-03-13T02:58:59;99008.41;;;0.48;79.95
50710;BME280;37033;49.994;21.992;2023-03-13T03:01:30;99008.73;;;0.50;79.98
50710;BME280;37033;49.994;21.992;2023-03-13T03:04:01;99003.61;;;0.51;79.65
50710;BME280;37033;49.994;21.992;2023-03-13T03:06:32;99004.90;;;0.54;79.59
50710;BME280;37033;49.994;21.992;2023-03-13T03:09:03;99003.77;;;0.55;79.34
50710;BME280;37033;49.994;21.992;2023-03-13T03:11:34;99006.05;;;0.57;79.38
50710;BME280;37033;49.994;21.992;2023-03-13T03:14:05;99001.42;;;0.59;79.10
50710;BME280;37033;49.994;21.992;2023-03-13T03:16:36;99001.13;;;0.62;79.36
50710;BME280;37033;49.994;21.992;2023-03-13T03:19:07;99003.54;;;0.64;79.20
50710;BME280;37033;49.994;21.992;2023-03-13T03:21:39;98999.61;;;0.65;79.07
50710;BME280;37033;49.994;21.992;2023-03-13T03:24:10;99002.35;;;0.68;78.91
50710;BME280;37033;49.994;21.992;2023-03-13T03:26:41;98999.38;;;0.70;79.19
50710;BME280;37033;49.994;21.992;2023-03-13T03:29:12;98995.39;;;0.73;79.14
50710;BME280;37033;49.994;21.992;2023-03-13T03:31:43;98995.88;;;0.77;78.91
50710;BME280;37033;49.994;21.992;2023-03-13T03:34:13;98998.17;;;0.81;78.91
50710;BME280;37033;49.994;21.992;2023-03-13T03:36:44;98999.74;;;0.86;78.77
50710;BME280;37033;49.994;21.992;2023-03-13T03:39:15;99007.68;;;0.89;78.70
50710;BME280;37033;49.994;21.992;2023-03-13T03:41:46;99006.16;;;0.93;78.49
50710;BME280;37033;49.994;21.992;2023-03-13T03:44:17;99005.58;;;0.96;78.16
50710;BME280;37033;49.994;21.992;2023-03-13T03:46:48;99004.29;;;1.00;77.99
50710;BME280;37033;49.994;21.992;2023-03-13T03:49:19;99004.44;;;1.05;77.74
50710;BME280;37033;49.994;21.992;2023-03-13T03:51:49;99003.63;;;1.08;77.53
50710;BME280;37033;49.994;21.992;2023-03-13T03:54:20;99004.52;;;1.14;77.03
50710;BME280;37033;49.994;21.992;2023-03-13T03:56:51;99001.48;;;1.18;76.96
50710;BME280;37033;49.994;21.992;2023-03-13T03:59:22;99000.38;;;1.23;76.53
50710;BME280;37033;49.994;21.992;2023-03-13T04:01:54;99000.05;;;1.27;76.38
50710;BME280;37033;49.994;21.992;2023-03-13T04:04:25;99007.13;;;1.30;76.10
50710;BME280;37033;49.994;21.992;2023-03-13T04:06:56;99007.65;;;1.33;75.86
50710;BME280;37033;49.994;21.992;2023-03-13T04:09:27;99009.83;;;1.36;75.70
50710;BME280;37033;49.994;21.992;2023-03-13T04:11:57;99005.52;;;1.39;75.70
50710;BME280;37033;49.994;21.992;2023-03-13T04:14:28;99003.10;;;1.41;75.49
50710;BME280;37033;49.994;21.992;2023-03-13T04:16:59;99004.81;;;1.43;75.19
50710;BME280;37033;49.994;21.992;2023-03-13T04:19:30;99010.88;;;1.48;74.94
50710;BME280;37033;49.994;21.992;2023-03-13T04:22:00;99009.92;;;1.51;74.73
50710;BME280;37033;49.994;21.992;2023-03-13T04:24:31;99008.22;;;1.54;74.55
50710;BME280;37033;49.994;21.992;2023-03-13T04:27:02;99003.14;;;1.58;74.17
50710;BME280;37033;49.994;21.992;2023-03-13T04:29:34;99005.80;;;1.61;74.26
50710;BME280;37033;49.994;21.992;2023-03-13T04:32:06;99006.85;;;1.63;74.04
50710;BME280;37033;49.994;21.992;2023-03-13T04:34:37;99003.33;;;1.65;73.98
50710;BME280;37033;49.994;21.992;2023-03-13T04:37:08;99005.13;;;1.68;73.78
50710;BME280;37033;49.994;21.992;2023-03-13T04:39:39;99007.19;;;1.70;73.24
50710;BME280;37033;49.994;21.992;2023-03-13T04:42:11;99014.89;;;1.72;73.17
50710;BME280;37033;49.994;21.992;2023-03-13T04:44:42;99014.05;;;1.76;72.92
50710;BME280;37033;49.994;21.992;2023-03-13T04:47:12;99010.20;;;1.82;72.35
50710;BME280;37033;49.994;21.992;2023-03-13T04:49:46;99009.27;;;1.86;71.95
50710;BME280;37033;49.994;21.992;2023-03-13T04:52:20;99008.61;;;1.92;71.38
50710;BME280;37033;49.994;21.992;2023-03-13T04:54:51;99009.07;;;1.99;71.11
50710;BME280;37033;49.994;21.992;2023-03-13T04:57:22;99005.17;;;2.03;70.69
50710;BME280;37033;49.994;21.992;2023-03-13T04:59:53;99003.35;;;2.07;70.61
50710;BME280;37033;49.994;21.992;2023-03-13T05:02:24;99004.30;;;2.12;70.06
50710;BME280;37033;49.994;21.992;2023-03-13T05:04:58;99007.83;;;2.17;70.12
50710;BME280;37033;49.994;21.992;2023-03-13T05:07:34;99008.34;;;2.20;70.46
50710;BME280;37033;49.994;21.992;2023-03-13T05:10:09;99006.25;;;2.21;70.55
50710;BME280;37033;49.994;21.992;2023-03-13T05:12:41;99000.33;;;2.23;70.66
50710;BME280;37033;49.994;21.992;2023-03-13T05:15:13;99004.21;;;2.25;70.93
50710;BME280;37033;49.994;21.992;2023-03-13T05:17:44;99004.58;;;2.26;70.78
50710;BME280;37033;49.994;21.992;2023-03-13T05:20:15;99003.85;;;2.27;70.56
50710;BME280;37033;49.994;21.992;2023-03-13T05:22:46;99009.97;;;2.30;70.81
50710;BME280;37033;49.994;21.992;2023-03-13T05:25:21;99012.99;;;2.31;70.74
50710;BME280;37033;49.994;21.992;2023-03-13T05:27:52;99012.34;;;2.32;70.69
50710;BME280;37033;49.994;21.992;2023-03-13T05:30:23;99006.37;;;2.33;70.79
50710;BME280;37033;49.994;21.992;2023-03-13T05:32:54;99005.25;;;2.34;70.80
50710;BME280;37033;49.994;21.992;2023-03-13T05:35:25;99007.04;;;2.36;70.77
50710;BME280;37033;49.994;21.992;2023-03-13T05:37:56;99002.91;;;2.37;70.66
50710;BME280;37033;49.994;21.992;2023-03-13T05:40:29;99008.59;;;2.40;70.21
50710;BME280;37033;49.994;21.992;2023-03-13T05:43:00;99009.00;;;2.43;70.01
50710;BME280;37033;49.994;21.992;2023-03-13T05:45:32;99010.23;;;2.47;69.48
50710;BME280;37033;49.994;21.992;2023-03-13T05:48:03;99005.84;;;2.50;69.26
50710;BME280;37033;49.994;21.992;2023-03-13T05:50:34;99001.64;;;2.54;69.23
50710;BME280;37033;49.994;21.992;2023-03-13T05:53:08;99004.50;;;2.56;69.19
50710;BME280;37033;49.994;21.992;2023-03-13T05:55:39;99005.64;;;2.61;68.79
50710;BME280;37033;49.994;21.992;2023-03-13T05:58:10;99008.21;;;2.63;68.90
50710;BME280;37033;49.994;21.992;2023-03-13T06:00:41;99003.96;;;2.65;68.69
50710;BME280;37033;49.994;21.992;2023-03-13T06:03:12;99002.79;;;2.68;68.93
50710;BME280;37033;49.994;21.992;2023-03-13T06:05:43;99003.03;;;2.70;68.95
50710;BME280;37033;49.994;21.992;2023-03-13T06:08:14;98999.75;;;2.73;68.63
50710;BME280;37033;49.994;21.992;2023-03-13T06:10:45;98999.42;;;2.76;68.70
50710;BME280;37033;49.994;21.992;2023-03-13T06:13:16;99004.77;;;2.81;68.74
50710;BME280;37033;49.994;21.992;2023-03-13T06:15:52;99010.13;;;2.85;68.12
50710;BME280;37033;49.994;21.992;2023-03-13T06:18:24;99009.05;;;2.90;67.34
50710;BME280;37033;49.994;21.992;2023-03-13T06:20:59;99003.54;;;2.94;67.46
50710;BME280;37033;49.994;21.992;2023-03-13T06:23:30;99005.46;;;2.99;67.32
50710;BME280;37033;49.994;21.992;2023-03-13T06:26:01;99005.90;;;3.02;67.60
50710;BME280;37033;49.994;21.992;2023-03-13T06:28:33;99007.05;;;3.06;67.29
50710;BME280;37033;49.994;21.992;2023-03-13T06:31:07;99007.52;;;3.10;67.25
50710;BME280;37033;49.994;21.992;2023-03-13T06:33:40;99011.99;;;3.16;67.06
50710;BME280;37033;49.994;21.992;2023-03-13T06:36:12;99015.89;;;3.21;66.96
50710;BME280;37033;49.994;21.992;2023-03-13T06:38:43;99022.79;;;3.23;66.67
50710;BME280;37033;49.994;21.992;2023-03-13T06:41:14;99019.12;;;3.23;66.60
50710;BME280;37033;49.994;21.992;2023-03-13T06:43:45;99019.00;;;3.24;66.75
50710;BME280;37033;49.994;21.992;2023-03-13T06:46:19;99018.46;;;3.24;66.40
50710;BME280;37033;49.994;21.992;2023-03-13T06:48:49;99022.77;;;3.24;66.51
50710;BME280;37033;49.994;21.992;2023-03-13T06:51:21;99020.91;;;3.25;66.28
50710;BME280;37033;49.994;21.992;2023-03-13T06:53:52;99023.42;;;3.26;65.73
50710;BME280;37033;49.994;21.992;2023-03-13T06:56:23;99020.04;;;3.25;65.92
50710;BME280;37033;49.994;21.992;2023-03-13T06:58:54;99014.09;;;3.28;65.64
50710;BME280;37033;49.994;21.992;2023-03-13T07:01:25;99019.55;;;3.32;65.66
50710;BME280;37033;49.994;21.992;2023-03-13T07:03:56;99022.61;;;3.34;65.64
50710;BME280;37033;49.994;21.992;2023-03-13T07:06:27;99012.41;;;3.37;64.99
50710;BME280;37033;49.994;21.992;2023-03-13T07:08:58;99016.92;;;3.40;65.19
50710;BME280;37033;49.994;21.992;2023-03-13T07:11:29;99018.55;;;3.44;65.07
50710;BME280;37033;49.994;21.992;2023-03-13T07:14:00;99024.05;;;3.47;65.09
50710;BME280;37033;49.994;21.992;2023-03-13T07:16:31;99017.77;;;3.51;65.14
50710;BME280;37033;49.994;21.992;2023-03-13T07:19:02;99016.86;;;3.55;65.26
50710;BME280;37033;49.994;21.992;2023-03-13T07:21:34;99018.52;;;3.60;65.33
50710;BME280;37033;49.994;21.992;2023-03-13T07:24:06;99010.06;;;3.64;65.27
50710;BME280;37033;49.994;21.992;2023-03-13T07:26:37;99016.72;;;3.69;65.58
50710;BME280;37033;49.994;21.992;2023-03-13T07:29:09;99013.27;;;3.76;65.51
50710;BME280;37033;49.994;21.992;2023-03-13T07:31:42;99008.02;;;3.84;65.38
50710;BME280;37033;49.994;21.992;2023-03-13T07:34:13;99002.02;;;3.89;65.41
50710;BME280;37033;49.994;21.992;2023-03-13T07:36:44;98995.98;;;3.98;65.42
50710;BME280;37033;49.994;21.992;2023-03-13T07:39:15;99000.36;;;4.06;65.10
50710;BME280;37033;49.994;21.992;2023-03-13T07:41:46;98994.71;;;4.14;65.13
50710;BME280;37033;49.994;21.992;2023-03-13T07:44:17;98992.09;;;4.24;65.24
50710;BME280;37033;49.994;21.992;2023-03-13T07:46:48;98988.96;;;4.33;65.11
50710;BME280;37033;49.994;21.992;2023-03-13T07:49:19;98981.86;;;4.40;65.11
50710;BME280;37033;49.994;21.992;2023-03-13T07:51:51;98976.88;;;4.48;64.80
50710;BME280;37033;49.994;21.992;2023-03-13T07:54:21;98977.69;;;4.55;64.79
50710;BME280;37033;49.994;21.992;2023-03-13T07:56:52;98970.58;;;4.61;64.61
50710;BME280;37033;49.994;21.992;2023-03-13T07:59:23;98967.45;;;4.67;64.75
50710;BME280;37033;49.994;21.992;2023-03-13T08:01:54;98965.23;;;4.72;64.43
50710;BME280;37033;49.994;21.992;2023-03-13T08:04:25;98959.14;;;4.80;64.62
50710;BME280;37033;49.994;21.992;2023-03-13T08:06:56;98963.71;;;4.87;64.32
50710;BME280;37033;49.994;21.992;2023-03-13T08:09:30;98953.86;;;4.92;64.13
50710;BME280;37033;49.994;21.992;2023-03-13T08:12:01;98957.52;;;4.99;63.90
50710;BME280;37033;49.994;21.992;2023-03-13T08:14:32;98954.49;;;5.05;63.74
50710;BME280;37033;49.994;21.992;2023-03-13T08:17:03;98950.07;;;5.11;63.69
50710;BME280;37033;49.994;21.992;2023-03-13T08:19:34;98946.64;;;5.17;63.48
50710;BME280;37033;49.994;21.992;2023-03-13T08:22:06;98950.66;;;5.24;63.86
50710;BME280;37033;49.994;21.992;2023-03-13T08:24:38;98947.79;;;5.31;63.22
50710;BME280;37033;49.994;21.992;2023-03-13T08:27:12;98942.79;;;5.36;62.79
50710;BME280;37033;49.994;21.992;2023-03-13T08:29:43;98940.52;;;5.40;62.51
50710;BME280;37033;49.994;21.992;2023-03-13T08:32:13;98940.05;;;5.44;62.85
50710;BME280;37033;49.994;21.992;2023-03-13T08:34:46;98936.30;;;5.49;62.92
50710;BME280;37033;49.994;21.992;2023-03-13T08:37:17;98934.86;;;5.51;62.25
50710;BME280;37033;49.994;21.992;2023-03-13T08:39:48;98927.98;;;5.50;62.18
50710;BME280;37033;49.994;21.992;2023-03-13T08:42:19;98925.67;;;5.50;62.02
50710;BME280;37033;49.994;21.992;2023-03-13T08:44:50;98923.70;;;5.53;62.31
50710;BME280;37033;49.994;21.992;2023-03-13T08:47:21;98921.96;;;5.56;62.06
50710;BME280;37033;49.994;21.992;2023-03-13T08:49:52;98926.55;;;5.58;61.53
50710;BME280;37033;49.994;21.992;2023-03-13T08:52:24;98924.33;;;5.61;61.59
50710;BME280;37033;49.994;21.992;2023-03-13T08:54:56;98920.63;;;5.67;61.75
50710;BME280;37033;49.994;21.992;2023-03-13T08:57:27;98921.73;;;5.74;61.75
50710;BME280;37033;49.994;21.992;2023-03-13T08:59:57;98918.59;;;5.81;61.67
50710;BME280;37033;49.994;21.992;2023-03-13T09:02:28;98921.26;;;5.90;61.55
50710;BME280;37033;49.994;21.992;2023-03-13T09:05:00;98907.73;;;5.99;61.70
50710;BME280;37033;49.994;21.992;2023-03-13T09:07:30;98908.00;;;6.09;61.13
50710;BME280;37033;49.994;21.992;2023-03-13T09:10:01;98915.10;;;6.18;60.40
50710;BME280;37033;49.994;21.992;2023-03-13T09:15:04;98915.41;;;6.38;60.69
50710;BME280;37033;49.994;21.992;2023-03-13T09:17:35;98911.90;;;6.49;60.31
50710;BME280;37033;49.994;21.992;2023-03-13T09:20:09;98912.73;;;6.56;60.15
50710;BME280;37033;49.994;21.992;2023-03-13T09:22:40;98917.08;;;6.64;60.14
50710;BME280;37033;49.994;21.992;2023-03-13T09:25:12;98916.21;;;6.70;59.36
50710;BME280;37033;49.994;21.992;2023-03-13T09:27:46;98912.70;;;6.72;59.10
50710;BME280;37033;49.994;21.992;2023-03-13T09:30:18;98918.39;;;6.72;59.00
50710;BME280;37033;49.994;21.992;2023-03-13T09:32:49;98917.02;;;6.72;58.28
50710;BME280;37033;49.994;21.992;2023-03-13T09:35:25;98920.45;;;6.70;58.04
50710;BME280;37033;49.994;21.992;2023-03-13T09:37:56;98915.85;;;6.70;58.08
50710;BME280;37033;49.994;21.992;2023-03-13T09:40:28;98912.86;;;6.69;58.41
50710;BME280;37033;49.994;21.992;2023-03-13T09:43:00;98914.20;;;6.71;58.48
50710;BME280;37033;49.994;21.992;2023-03-13T09:45:37;98911.39;;;6.71;58.54
50710;BME280;37033;49.994;21.992;2023-03-13T09:48:16;98913.43;;;6.73;58.95
50710;BME280;37033;49.994;21.992;2023-03-13T09:50:58;98903.23;;;6.77;59.27
50710;BME280;37033;49.994;21.992;2023-03-13T09:53:37;98897.61;;;6.87;59.43
50710;BME280;37033;49.994;21.992;2023-03-13T09:56:15;98897.14;;;6.98;59.78
50710;BME280;37033;49.994;21.992;2023-03-13T09:58:50;98890.96;;;7.10;59.62
50710;BME280;37033;49.994;21.992;2023-03-13T10:01:27;98887.17;;;7.21;59.44
50710;BME280;37033;49.994;21.992;2023-03-13T10:04:18;98879.98;;;7.31;59.35
50710;BME280;37033;49.994;21.992;2023-03-13T10:06:52;98876.35;;;7.45;59.32
50710;BME280;37033;49.994;21.992;2023-03-13T10:09:27;98869.39;;;7.54;59.30
50710;BME280;37033;49.994;21.992;2023-03-13T10:12:07;98869.05;;;7.63;59.17
50710;BME280;37033;49.994;21.992;2023-03-13T10:14:52;98873.85;;;7.69;58.64
50710;BME280;37033;49.994;21.992;2023-03-13T10:17:31;98870.44;;;7.77;58.70
50710;BME280;37033;49.994;21.992;2023-03-13T10:20:13;98865.27;;;7.89;59.01
50710;BME280;37033;49.994;21.992;2023-03-13T10:22:47;98867.45;;;8.03;59.13
50710;BME280;37033;49.994;21.992;2023-03-13T10:25:26;98866.23;;;8.14;58.81
50710;BME280;37033;49.994;21.992;2023-03-13T10:27:58;98868.08;;;8.25;58.56
50710;BME280;37033;49.994;21.992;2023-03-13T10:30:31;98865.46;;;8.34;58.11
50710;BME280;37033;49.994;21.992;2023-03-13T10:33:26;98866.48;;;8.37;57.36
50710;BME280;37033;49.994;21.992;2023-03-13T10:36:09;98871.41;;;8.37;56.94
50710;BME280;37033;49.994;21.992;2023-03-13T10:38:51;98856.08;;;8.31;56.67
50710;BME280;37033;49.994;21.992;2023-03-13T10:41:26;98861.84;;;8.22;56.49
50710;BME280;37033;49.994;21.992;2023-03-13T10:44:02;98856.48;;;8.08;56.38
50710;BME280;37033;49.994;21.992;2023-03-13T10:46:38;98849.64;;;8.02;57.02
50710;BME280;37033;49.994;21.992;2023-03-13T10:49:15;98844.57;;;8.08;57.71
50710;BME280;37033;49.994;21.992;2023-03-13T10:51:50;98838.27;;;8.18;57.60
50710;BME280;37033;49.994;21.992;2023-03-13T10:54:27;98835.59;;;8.22;57.39
50710;BME280;37033;49.994;21.992;2023-03-13T10:57:29;98830.30;;;8.28;57.59
50710;BME280;37033;49.994;21.992;2023-03-13T11:00:00;98825.13;;;8.36;57.19
50710;BME280;37033;49.994;21.992;2023-03-13T11:02:37;98822.05;;;8.43;56.99
50710;BME280;37033;49.994;21.992;2023-03-13T11:05:31;98821.79;;;8.48;56.94
50710;BME280;37033;49.994;21.992;2023-03-13T11:08:20;98815.68;;;8.53;56.56
50710;BME280;37033;49.994;21.992;2023-03-13T11:10:58;98818.66;;;8.58;56.09
50710;BME280;37033;49.994;21.992;2023-03-13T11:13:38;98813.21;;;8.62;56.46
50710;BME280;37033;49.994;21.992;2023-03-13T11:16:19;98804.43;;;8.71;56.26
50710;BME280;37033;49.994;21.992;2023-03-13T11:19:15;98798.91;;;8.78;56.45
50710;BME280;37033;49.994;21.992;2023-03-13T11:21:58;98782.92;;;8.91;56.25
50710;BME280;37033;49.994;21.992;2023-03-13T11:24:38;98780.31;;;8.97;56.07
50710;BME280;37033;49.994;21.992;2023-03-13T11:27:18;98779.19;;;8.98;55.31
50710;BME280;37033;49.994;21.992;2023-03-13T11:30:04;98780.44;;;9.01;55.56
50710;BME280;37033;49.994;21.992;2023-03-13T11:32:42;98774.78;;;9.10;55.99
50710;BME280;37033;49.994;21.992;2023-03-13T11:35:25;98776.35;;;9.17;55.13
50710;BME280;37033;49.994;21.992;2023-03-13T11:38:03;98766.73;;;9.18;55.01
50710;BME280;37033;49.994;21.992;2023-03-13T11:40:37;98761.27;;;9.20;54.88
50710;BME280;37033;49.994;21.992;2023-03-13T11:43:44;98756.63;;;9.21;54.82
50710;BME280;37033;49.994;21.992;2023-03-13T11:49:26;98748.81;;;9.24;54.06
50710;BME280;37033;49.994;21.992;2023-03-13T11:52:10;98743.67;;;9.25;54.09
50710;BME280;37033;49.994;21.992;2023-03-13T11:54:57;98742.89;;;9.27;54.06
50710;BME280;37033;49.994;21.992;2023-03-13T11:57:33;98737.78;;;9.31;54.22
50710;BME280;37033;49.994;21.992;2023-03-13T12:00:21;98730.24;;;9.35;54.50
50710;BME280;37033;49.994;21.992;2023-03-13T12:03:05;98722.91;;;9.39;54.25
50710;BME280;37033;49.994;21.992;2023-03-13T12:05:46;98727.55;;;9.40;53.96
50710;BME280;37033;49.994;21.992;2023-03-13T12:08:25;98727.77;;;9.43;54.02
50710;BME280;37033;49.994;21.992;2023-03-13T12:11:08;98730.69;;;9.51;54.25
50710;BME280;37033;49.994;21.992;2023-03-13T12:13:45;98722.20;;;9.58;53.18
50710;BME280;37033;49.994;21.992;2023-03-13T12:16:22;98724.23;;;9.59;53.32
50710;BME280;37033;49.994;21.992;2023-03-13T12:18:56;98718.17;;;9.65;53.25
50710;BME280;37033;49.994;21.992;2023-03-13T12:21:31;98722.52;;;9.66;52.79
50710;BME280;37033;49.994;21.992;2023-03-13T12:24:12;98718.34;;;9.69;53.03
50710;BME280;37033;49.994;21.992;2023-03-13T12:26:51;98718.02;;;9.75;52.55
50710;BME280;37033;49.994;21.992;2023-03-13T12:29:32;98721.27;;;9.75;52.64
50710;BME280;37033;49.994;21.992;2023-03-13T12:32:13;98711.20;;;9.77;53.13
50710;BME280;37033;49.994;21.992;2023-03-13T12:34:58;98706.56;;;9.84;52.63
50710;BME280;37033;49.994;21.992;2023-03-13T12:37:38;98700.17;;;9.86;51.99
50710;BME280;37033;49.994;21.992;2023-03-13T12:40:18;98706.51;;;9.88;52.11
50710;BME280;37033;49.994;21.992;2023-03-13T12:43:00;98709.95;;;9.86;52.38
50710;BME280;37033;49.994;21.992;2023-03-13T12:45:36;98715.63;;;9.83;52.69
50710;BME280;37033;49.994;21.992;2023-03-13T12:48:20;98710.40;;;9.82;52.49
50710;BME280;37033;49.994;21.992;2023-03-13T12:51:19;98704.02;;;9.81;52.52
50710;BME280;37033;49.994;21.992;2023-03-13T12:54:08;98704.53;;;9.82;52.51
50710;BME280;37033;49.994;21.992;2023-03-13T12:56:52;98703.46;;;9.83;52.04
50710;BME280;37033;49.994;21.992;2023-03-13T12:59:30;98699.21;;;9.86;52.66
50710;BME280;37033;49.994;21.992;2023-03-13T13:02:06;98692.47;;;9.96;52.45
50710;BME280;37033;49.994;21.992;2023-03-13T13:04:45;98685.89;;;9.99;52.08
50710;BME280;37033;49.994;21.992;2023-03-13T13:07:25;98683.40;;;9.99;52.30
50710;BME280;37033;49.994;21.992;2023-03-13T13:10:15;98674.58;;;10.03;52.43
50710;BME280;37033;49.994;21.992;2023-03-13T13:13:15;98676.05;;;10.14;51.77
50710;BME280;37033;49.994;21.992;2023-03-13T13:15:43;98664.02;;;10.22;51.47
50710;BME280;37033;49.994;21.992;2023-03-13T13:18:24;98666.88;;;10.25;51.27
50710;BME280;37033;49.994;21.992;2023-03-13T13:24:47;98661.52;;;10.22;50.68
50710;BME280;37033;49.994;21.992;2023-03-13T13:27:46;98655.65;;;10.11;50.60
50710;BME280;37033;49.994;21.992;2023-03-13T13:30:31;98651.49;;;9.97;50.43
50710;BME280;37033;49.994;21.992;2023-03-13T13:35:46;98647.63;;;9.76;51.18
50710;BME280;37033;49.994;21.992;2023-03-13T13:38:33;98649.59;;;9.71;51.04
50710;BME280;37033;49.994;21.992;2023-03-13T13:41:36;98646.21;;;9.65;51.68
50710;BME280;37033;49.994;21.992;2023-03-13T13:44:31;98645.64;;;9.63;52.05
50710;BME280;37033;49.994;21.992;2023-03-13T13:47:02;98630.66;;;9.63;51.88
50710;BME280;37033;49.994;21.992;2023-03-13T13:49:53;98630.64;;;9.61;51.89